Time;durP1;ratioP1;P1;durP2;ratioP2;P2;SDS_P1;SDS_P2;PMS_P1;PMS_P2;Temp;Humidity;BMP_temperature;BMP_pressure;BME280_temperature;BME280_humidity;BME280_pressure;Samples;Min_cycle;Max_cycle;Signal;HPM_P1;HPM_P2
2022/04/12 00:01:32;;;;;;;4.05;2.08;;;7.20;99.90;;;;;;5009750;28;20046;-76
2022/04/12 00:04:00;;;;;;;7.32;3.25;;;7.20;99.90;;;;;;5009127;28;20045;-75
2022/04/12 00:06:26;;;;;;;3.75;2.85;;;7.20;99.90;;;;;;4994052;28;20040;-75
2022/04/12 00:08:52;;;;;;;1.55;1.45;;;7.20;99.90;;;;;;5010097;28;20042;-75
2022/04/12 00:11:18;;;;;;;4.93;2.97;;;7.20;99.90;;;;;;5009724;28;20045;-74
2022/04/12 00:13:43;;;;;;;2.55;1.95;;;7.20;99.90;;;;;;5012163;28;20087;-74
2022/04/12 00:16:09;;;;;;;5.10;2.58;;;7.20;99.90;;;;;;5014937;28;20049;-74
2022/04/12 00:21:19;;;;;;;1.65;1.48;;;7.20;99.90;;;;;;5010549;28;20066;-75
2022/04/12 00:23:45;;;;;;;11.50;2.72;;;7.10;99.90;;;;;;4997472;28;20509;-75
2022/04/12 00:26:11;;;;;;;3.72;2.33;;;7.10;99.90;;;;;;4994274;28;20064;-74
2022/04/12 00:28:37;;;;;;;3.42;1.98;;;7.10;99.90;;;;;;5022918;28;20124;-74
2022/04/12 00:31:03;;;;;;;5.20;2.45;;;7.10;99.90;;;;;;5011818;28;20132;-75
2022/04/12 00:33:29;;;;;;;3.03;2.55;;;7.00;99.90;;;;;;5013048;28;20037;-75
2022/04/12 00:35:58;;;;;;;2.28;1.98;;;7.00;99.90;;;;;;5013586;28;20052;-75
2022/04/12 00:38:24;;;;;;;2.53;2.22;;;7.00;99.90;;;;;;5013670;28;20623;-75
2022/04/12 00:40:50;;;;;;;4.30;2.47;;;6.90;99.90;;;;;;4996577;28;20148;-75
2022/04/12 00:43:20;;;;;;;5.10;2.95;;;6.90;99.90;;;;;;4995796;28;20374;-75
2022/04/12 00:45:46;;;;;;;5.68;2.75;;;6.90;99.90;;;;;;5008083;28;20045;-75
2022/04/12 00:48:13;;;;;;;2.92;2.17;;;6.90;99.90;;;;;;5014075;28;20041;-75
2022/04/12 00:50:40;;;;;;;8.35;2.35;;;6.80;99.90;;;;;;5012327;28;20095;-75
2022/04/12 00:53:08;;;;;;;10.57;2.15;;;6.80;99.90;;;;;;5014050;28;20128;-75
2022/04/12 00:55:34;;;;;;;3.58;2.55;;;6.80;99.90;;;;;;5013378;28;20067;-75
2022/04/12 00:58:06;;;;;;;4.07;2.53;;;6.70;99.90;;;;;;5010818;28;20069;-75
2022/04/12 01:00:32;;;;;;;2.85;1.90;;;6.70;99.90;;;;;;5007029;28;20052;-74
2022/04/12 01:02:58;;;;;;;1.98;1.85;;;6.70;99.90;;;;;;5013116;28;20041;-74
2022/04/12 01:05:24;;;;;;;1.67;1.58;;;6.70;99.90;;;;;;5013386;28;20568;-76
2022/04/12 01:07:50;;;;;;;1.95;1.60;;;6.70;99.90;;;;;;4993578;28;20121;-74
2022/04/12 01:10:16;;;;;;;1.33;1.23;;;6.60;99.90;;;;;;5027774;28;20439;-75
2022/04/12 01:12:42;;;;;;;1.65;1.55;;;6.60;99.90;;;;;;5013661;28;20124;-75
2022/04/12 01:15:11;;;;;;;5.25;2.47;;;6.50;99.90;;;;;;5013446;28;20106;-75
2022/04/12 01:17:37;;;;;;;2.95;2.05;;;6.40;99.90;;;;;;5011302;28;20042;-75
2022/04/12 01:20:06;;;;;;;4.90;2.95;;;6.40;99.90;;;;;;5012867;28;20044;-75
2022/04/12 01:22:33;;;;;;;4.03;2.63;;;6.40;99.90;;;;;;4996693;28;20489;-75
2022/04/12 01:25:00;;;;;;;2.42;2.22;;;6.40;99.90;;;;;;5012431;28;20046;-75
2022/04/12 01:27:27;;;;;;;8.85;2.83;;;6.40;99.90;;;;;;5012988;28;20041;-75
2022/04/12 01:29:53;;;;;;;4.07;2.13;;;6.30;99.90;;;;;;5026564;28;20102;-75
2022/04/12 01:32:19;;;;;;;6.18;2.83;;;6.40;99.90;;;;;;4996007;28;20456;-75
2022/04/12 01:34:44;;;;;;;4.03;3.33;;;6.40;99.90;;;;;;4996328;28;20041;-75
2022/04/12 01:37:10;;;;;;;6.25;2.58;;;6.30;99.90;;;;;;5009463;28;20110;-75
2022/04/12 01:39:36;;;;;;;7.05;2.83;;;6.30;99.90;;;;;;5009681;28;20721;-75
2022/04/12 01:42:01;;;;;;;3.58;2.78;;;6.30;99.90;;;;;;5012913;28;20481;-74
2022/04/12 01:44:27;;;;;;;3.70;2.75;;;6.30;99.90;;;;;;5012361;28;20033;-75
2022/04/12 01:46:52;;;;;;;2.55;2.28;;;6.30;99.90;;;;;;5008041;28;20935;-75
2022/04/12 01:49:18;;;;;;;3.45;2.15;;;6.30;99.90;;;;;;4996629;28;20045;-76
2022/04/12 01:51:44;;;;;;;7.05;2.95;;;6.20;99.90;;;;;;5011814;28;20493;-75
2022/04/12 01:54:10;;;;;;;2.67;2.42;;;6.20;99.90;;;;;;4986699;28;20493;-76
2022/04/12 01:56:36;;;;;;;13.02;3.10;;;6.20;99.90;;;;;;4990507;28;20062;-75
2022/04/12 01:59:02;;;;;;;11.40;2.28;;;6.20;99.90;;;;;;5007275;28;20170;-75
2022/04/12 02:01:29;;;;;;;5.50;2.15;;;6.20;99.90;;;;;;5006833;28;20045;-75
2022/04/12 02:03:54;;;;;;;4.18;3.15;;;6.20;99.90;;;;;;4996306;28;20609;-75
2022/04/12 02:06:20;;;;;;;2.85;2.33;;;6.20;99.90;;;;;;5012426;28;20124;-75
2022/04/12 02:08:46;;;;;;;3.75;2.85;;;6.20;99.90;;;;;;5012594;28;20045;-75
2022/04/12 02:11:11;;;;;;;6.70;3.50;;;6.20;99.90;;;;;;4995210;28;20048;-75
2022/04/12 02:13:37;;;;;;;2.97;2.70;;;6.10;99.90;;;;;;4996041;28;20064;-75
2022/04/12 02:16:03;;;;;;;2.88;2.08;;;6.10;99.90;;;;;;4989643;28;20501;-75
2022/04/12 02:18:28;;;;;;;6.13;3.22;;;6.10;99.90;;;;;;5007555;28;20171;-75
2022/04/12 02:20:54;;;;;;;3.95;3.20;;;6.10;99.90;;;;;;5012051;28;20122;-74
2022/04/12 02:23:19;;;;;;;8.93;3.47;;;6.10;99.90;;;;;;5021108;28;20029;-75
2022/04/12 02:25:45;;;;;;;3.40;1.83;;;6.10;99.90;;;;;;4992387;28;20046;-75
2022/04/12 02:28:10;;;;;;;10.50;3.63;;;6.10;99.90;;;;;;5003576;28;20034;-75
2022/04/12 02:30:38;;;;;;;2.55;2.33;;;6.10;99.90;;;;;;5007249;28;20071;-75
2022/04/12 02:33:03;;;;;;;3.13;2.28;;;6.10;99.90;;;;;;5008540;28;20100;-74
2022/04/12 02:35:29;;;;;;;3.72;3.17;;;6.10;99.90;;;;;;4983812;28;20581;-76
2022/04/12 02:37:54;;;;;;;4.10;2.50;;;6.10;99.90;;;;;;4993905;28;20049;-76
2022/04/12 02:40:20;;;;;;;9.52;2.70;;;6.10;99.90;;;;;;4990533;28;20161;-75
2022/04/12 02:42:46;;;;;;;4.45;3.53;;;6.00;99.90;;;;;;5007886;28;20541;-75
2022/04/12 02:45:11;;;;;;;2.72;2.28;;;6.00;99.90;;;;;;5002421;28;20070;-76
2022/04/12 02:47:37;;;;;;;1.17;1.17;;;6.00;99.90;;;;;;5000046;28;20033;-75
2022/04/12 02:50:03;;;;;;;2.55;2.13;;;5.90;99.90;;;;;;4996179;28;20038;-75
2022/04/12 02:52:28;;;;;;;3.15;2.17;;;5.90;99.90;;;;;;5004113;28;20081;-75
2022/04/12 02:54:54;;;;;;;1.15;1.15;;;5.90;99.90;;;;;;4991321;28;20080;-75
2022/04/12 02:57:20;;;;;;;1.92;1.73;;;5.90;99.90;;;;;;5007939;28;20067;-75
2022/04/12 02:59:45;;;;;;;3.70;3.03;;;5.80;99.90;;;;;;4991776;28;20489;-75
2022/04/12 03:02:11;;;;;;;6.95;4.07;;;5.80;99.90;;;;;;4991642;28;20042;-75
2022/04/12 03:04:36;;;;;;;3.25;2.92;;;5.80;99.90;;;;;;4994514;28;20040;-75
2022/04/12 03:07:02;;;;;;;4.47;3.33;;;5.80;99.90;;;;;;4984120;28;20049;-76
2022/04/12 03:09:28;;;;;;;5.25;3.67;;;5.80;99.90;;;;;;5006160;28;20038;-76
2022/04/12 03:11:54;;;;;;;5.13;3.15;;;5.80;99.90;;;;;;4991099;28;20038;-75
2022/04/12 03:14:20;;;;;;;2.15;2.03;;;5.70;99.90;;;;;;4991530;28;20095;-75
2022/04/12 03:16:45;;;;;;;1.55;1.38;;;5.70;99.90;;;;;;4990170;28;20076;-75
2022/04/12 03:19:11;;;;;;;2.70;2.50;;;5.70;99.90;;;;;;5007699;28;20413;-75
2022/04/12 03:21:36;;;;;;;2.25;2.08;;;5.70;99.90;;;;;;5006393;28;20041;-75
2022/04/12 03:24:03;;;;;;;1.40;1.27;;;5.70;99.90;;;;;;4990400;28;20108;-75
2022/04/12 03:26:29;;;;;;;2.50;2.30;;;5.70;99.90;;;;;;5006796;28;20058;-75
2022/04/12 03:28:55;;;;;;;6.78;4.10;;;5.70;99.90;;;;;;5004807;28;20030;-75
2022/04/12 03:31:21;;;;;;;1.58;1.48;;;5.60;99.90;;;;;;4990952;28;20042;-75
2022/04/12 03:33:48;;;;;;;9.05;3.95;;;5.60;99.90;;;;;;5007414;28;20084;-75
2022/04/12 03:36:13;;;;;;;2.83;2.47;;;5.60;99.90;;;;;;4992795;28;20045;-75
2022/04/12 03:38:48;;;;;;;4.30;2.97;;;5.70;99.90;;;;;;4987902;28;20187;-75
2022/04/12 03:41:22;;;;;;;757.00;302.15;;;5.70;99.90;;;;;;5005834;28;20053;-75
2022/04/12 03:43:48;;;;;;;1.80;1.70;;;5.80;99.90;;;;;;5002393;28;20073;-75
2022/04/12 03:46:14;;;;;;;583.08;136.65;;;5.80;99.90;;;;;;4995321;28;20074;-75
2022/04/12 03:48:39;;;;;;;3.45;2.95;;;5.80;99.90;;;;;;4990197;28;20042;-75
2022/04/12 03:51:05;;;;;;;0.80;0.80;;;5.70;99.90;;;;;;5007382;28;20132;-75
2022/04/12 03:53:31;;;;;;;4.10;3.40;;;5.70;99.90;;;;;;4990349;28;20044;-75
2022/04/12 03:55:57;;;;;;;2.53;2.20;;;5.70;99.90;;;;;;5007399;28;20060;-75
2022/04/12 03:58:23;;;;;;;5.30;3.92;;;5.70;99.90;;;;;;5006627;28;20042;-75
2022/04/12 04:00:49;;;;;;;3.80;3.20;;;5.80;99.90;;;;;;5005946;28;20108;-75
2022/04/12 04:03:18;;;;;;;2.47;2.28;;;5.80;99.90;;;;;;5009061;28;20037;-75
2022/04/12 04:05:44;;;;;;;3.40;1.67;;;5.80;99.90;;;;;;5007036;28;20145;-76
2022/04/12 04:08:10;;;;;;;2.80;2.55;;;5.80;99.90;;;;;;4989813;28;20065;-75
2022/04/12 04:10:36;;;;;;;3.22;2.92;;;5.80;99.90;;;;;;5001645;28;20399;-76
2022/04/12 04:13:04;;;;;;;4.38;3.10;;;5.80;99.90;;;;;;5008816;28;20052;-76
2022/04/12 04:15:31;;;;;;;7.60;4.63;;;5.80;99.90;;;;;;5007135;28;20120;-75
2022/04/12 04:17:57;;;;;;;3.95;2.83;;;5.80;99.90;;;;;;5007337;28;20073;-76
2022/04/12 04:20:23;;;;;;;1.35;1.23;;;5.80;99.90;;;;;;5007291;28;20049;-75
2022/04/12 04:22:48;;;;;;;2.60;2.17;;;5.80;99.90;;;;;;4996307;28;20038;-76
2022/04/12 04:25:15;;;;;;;3.15;2.85;;;5.70;99.90;;;;;;5006815;28;20065;-75
2022/04/12 04:27:41;;;;;;;3.38;2.17;;;5.70;99.90;;;;;;4990589;28;20057;-75
2022/04/12 04:30:08;;;;;;;14.50;3.50;;;5.70;99.90;;;;;;5006971;28;20072;-75
2022/04/12 04:32:35;;;;;;;5.05;3.45;;;5.70;99.90;;;;;;4990581;28;20449;-76
2022/04/12 04:35:02;;;;;;;3.33;3.03;;;5.70;99.90;;;;;;5006506;28;20042;-75
2022/04/12 04:37:28;;;;;;;4.70;4.10;;;5.70;99.90;;;;;;4986525;28;20079;-75
2022/04/12 04:39:53;;;;;;;3.17;2.88;;;5.80;99.90;;;;;;5004607;28;20561;-76
2022/04/12 04:42:23;;;;;;;5.10;3.25;;;5.80;99.90;;;;;;4990389;28;20414;-76
2022/04/12 04:44:49;;;;;;;2.83;2.47;;;5.70;99.90;;;;;;4990089;28;20040;-75
2022/04/12 04:47:15;;;;;;;1.20;1.10;;;5.60;99.90;;;;;;5022731;28;20081;-75
2022/04/12 04:49:41;;;;;;;5.38;3.47;;;5.60;99.90;;;;;;5007043;28;20072;-75
2022/04/12 04:52:06;;;;;;;2.33;2.13;;;5.50;99.90;;;;;;4999684;28;20379;-75
2022/04/12 04:54:32;;;;;;;5.50;3.03;;;5.60;99.90;;;;;;5004802;28;20046;-76
2022/04/12 04:56:58;;;;;;;3.40;2.10;;;5.50;99.90;;;;;;5006440;28;20137;-76
2022/04/12 04:59:23;;;;;;;2.92;2.67;;;5.50;99.90;;;;;;5008009;28;20918;-75
2022/04/12 05:01:49;;;;;;;6.82;3.15;;;5.50;99.90;;;;;;4993783;28;20076;-76
2022/04/12 05:04:14;;;;;;;3.92;2.92;;;5.50;99.90;;;;;;4993164;28;21431;-75
2022/04/12 05:06:40;;;;;;;5.88;2.15;;;5.60;99.90;;;;;;5001662;28;20072;-75
2022/04/12 05:09:06;;;;;;;4.60;3.25;;;5.60;99.90;;;;;;4992598;28;20077;-75
2022/04/12 05:11:31;;;;;;;3.83;3.28;;;5.60;99.90;;;;;;5010462;28;20456;-76
2022/04/12 05:13:57;;;;;;;4.53;3.38;;;5.60;99.90;;;;;;5008912;28;20050;-76
2022/04/12 05:16:23;;;;;;;14.30;5.03;;;5.60;99.90;;;;;;4992099;28;20054;-76
2022/04/12 05:18:51;;;;;;;5.15;3.08;;;5.60;99.90;;;;;;5016042;28;20052;-76
2022/04/12 05:21:17;;;;;;;8.85;3.90;;;5.60;99.90;;;;;;5006474;28;20430;-76
2022/04/12 05:23:43;;;;;;;6.78;4.47;;;5.70;99.90;;;;;;4993802;28;20553;-75
2022/04/12 05:26:08;;;;;;;5.90;3.97;;;5.80;99.90;;;;;;5006547;28;20068;-76
2022/04/12 05:28:34;;;;;;;2.60;2.38;;;5.90;99.90;;;;;;5004218;28;20072;-76
2022/04/12 05:31:00;;;;;;;2.33;2.00;;;6.10;99.90;;;;;;4992597;28;20076;-75
2022/04/12 05:33:25;;;;;;;11.77;5.45;;;6.20;99.90;;;;;;5009566;28;20485;-75
2022/04/12 05:35:51;;;;;;;7.57;4.60;;;6.40;99.90;;;;;;5008828;28;20049;-75
2022/04/12 05:38:16;;;;;;;10.05;5.40;;;6.50;99.90;;;;;;4993718;28;20034;-75
2022/04/12 05:40:42;;;;;;;2.30;2.10;;;6.60;99.90;;;;;;5009419;28;20046;-75
2022/04/12 05:43:07;;;;;;;6.32;4.30;;;6.70;99.90;;;;;;4992496;28;20053;-76
2022/04/12 05:45:33;;;;;;;8.18;4.88;;;6.80;99.90;;;;;;4993246;28;20092;-75
2022/04/12 05:48:00;;;;;;;5.63;3.85;;;6.90;99.90;;;;;;5010170;28;20058;-76
2022/04/12 05:50:27;;;;;;;3.90;3.50;;;7.00;99.90;;;;;;5008431;28;20033;-75
2022/04/12 05:52:53;;;;;;;4.35;3.47;;;7.10;99.90;;;;;;4992500;28;20096;-75
2022/04/12 05:55:22;;;;;;;9.95;5.65;;;7.10;99.90;;;;;;5009288;28;20060;-76
2022/04/12 05:57:52;;;;;;;6.28;3.92;;;7.20;99.90;;;;;;4993417;28;20052;-75
2022/04/12 06:00:19;;;;;;;8.38;4.45;;;7.20;99.90;;;;;;5002325;28;20046;-76
2022/04/12 06:02:46;;;;;;;11.10;4.93;;;7.20;99.90;;;;;;4974182;28;20137;-74
2022/04/12 06:05:13;;;;;;;6.78;3.72;;;7.20;99.90;;;;;;4994632;28;20101;-75
2022/04/12 06:07:39;;;;;;;7.38;4.35;;;7.20;99.90;;;;;;5009952;28;20112;-75
2022/04/12 06:10:06;;;;;;;3.50;2.92;;;7.30;99.90;;;;;;4992087;28;20077;-75
2022/04/12 06:12:31;;;;;;;7.35;4.20;;;7.30;99.90;;;;;;4986582;28;20403;-75
2022/04/12 06:14:57;;;;;;;5.38;4.53;;;7.40;99.90;;;;;;4999274;28;20088;-75
2022/04/12 06:17:30;;;;;;;5.72;3.50;;;7.40;99.90;;;;;;5009097;28;20490;-76
2022/04/12 06:20:16;;;;;;;8.65;4.60;;;7.50;99.90;;;;;;4987848;28;20532;-76
2022/04/12 06:22:42;;;;;;;5.47;4.22;;;7.60;99.90;;;;;;5017692;28;20049;-76
2022/04/12 06:25:10;;;;;;;4.97;3.38;;;7.70;99.90;;;;;;4993130;28;20143;-76
2022/04/12 06:27:45;;;;;;;2.40;2.20;;;7.80;99.90;;;;;;4990043;28;20093;-76
2022/04/12 06:30:14;;;;;;;4.90;3.30;;;7.80;99.90;;;;;;5001583;28;20450;-76
2022/04/12 06:32:43;;;;;;;4.70;3.10;;;7.90;99.90;;;;;;5009194;28;20572;-75
2022/04/12 06:35:10;;;;;;;7.03;4.10;;;8.00;99.90;;;;;;5001376;28;20038;-76
2022/04/12 06:37:37;;;;;;;5.45;2.78;;;8.00;99.90;;;;;;5007407;28;20444;-75
2022/04/12 06:40:04;;;;;;;11.00;2.67;;;8.10;99.90;;;;;;4992624;28;20397;-75
2022/04/12 06:42:30;;;;;;;21.33;4.30;;;8.10;99.90;;;;;;4999796;28;20506;-75
2022/04/12 06:44:56;;;;;;;9.52;4.07;;;8.20;99.90;;;;;;5017309;28;20038;-76
2022/04/12 06:47:22;;;;;;;2.55;2.35;;;8.20;99.90;;;;;;5001608;28;20052;-76
2022/04/12 06:49:49;;;;;;;4.28;3.00;;;8.20;99.90;;;;;;5007483;28;20037;-75
2022/04/12 06:52:16;;;;;;;3.05;2.40;;;8.20;99.90;;;;;;5003347;28;20521;-75
2022/04/12 06:54:42;;;;;;;1.95;1.85;;;8.20;99.90;;;;;;4980515;28;20042;-75
2022/04/12 06:57:08;;;;;;;2.47;2.28;;;8.20;99.90;;;;;;5008456;28;20048;-75
2022/04/12 06:59:34;;;;;;;4.15;2.17;;;8.30;99.90;;;;;;5008778;28;20092;-75
2022/04/12 07:02:01;;;;;;;5.53;3.97;;;8.30;99.90;;;;;;5005093;28;20065;-75
2022/04/12 07:04:27;;;;;;;5.97;2.67;;;8.40;99.90;;;;;;4989260;28;20120;-75
2022/04/12 07:06:53;;;;;;;6.75;4.35;;;8.40;99.90;;;;;;4986810;28;20046;-75
2022/04/12 07:09:20;;;;;;;6.20;4.40;;;8.40;99.90;;;;;;4992613;28;20119;-75
2022/04/12 07:11:47;;;;;;;8.15;4.55;;;8.40;99.90;;;;;;5005401;28;20056;-75
2022/04/12 07:14:12;;;;;;;9.75;4.38;;;8.50;99.90;;;;;;4988873;28;20053;-74
2022/04/12 07:16:38;;;;;;;1.63;1.48;;;8.50;99.90;;;;;;5004858;28;20056;-75
2022/04/12 07:19:04;;;;;;;9.90;5.32;;;8.50;99.90;;;;;;5000305;28;20049;-76
2022/04/12 07:21:31;;;;;;;5.97;4.40;;;8.60;99.90;;;;;;4988293;28;20520;-75
2022/04/12 07:23:59;;;;;;;6.97;4.35;;;8.80;99.90;;;;;;5001970;28;20096;-74
2022/04/12 07:26:25;;;;;;;2.05;1.48;;;8.90;99.90;;;;;;5022390;28;20065;-75
2022/04/12 07:28:51;;;;;;;4.63;3.28;;;9.00;99.90;;;;;;5023569;28;20033;-75
2022/04/12 07:31:16;;;;;;;5.38;2.35;;;9.10;99.90;;;;;;4975748;28;20500;-75
2022/04/12 07:33:42;;;;;;;5.13;3.47;;;9.10;99.90;;;;;;5011209;28;20049;-75
2022/04/12 07:36:07;;;;;;;7.05;4.35;;;9.30;99.90;;;;;;5011710;28;20401;-75
2022/04/12 07:38:33;;;;;;;5.53;3.95;;;9.30;99.90;;;;;;5012081;28;20374;-75
2022/04/12 07:40:59;;;;;;;8.25;5.05;;;9.40;99.90;;;;;;5011245;28;20045;-75
2022/04/12 07:43:24;;;;;;;6.05;3.30;;;9.50;99.90;;;;;;5027892;28;20041;-75
2022/04/12 07:45:50;;;;;;;2.13;1.83;;;9.50;99.90;;;;;;5007885;28;20091;-75
2022/04/12 07:48:15;;;;;;;6.78;3.83;;;9.70;99.90;;;;;;5000772;28;20477;-75
2022/04/12 07:50:41;;;;;;;1.80;1.70;;;9.80;99.90;;;;;;5008010;28;20129;-75
2022/04/12 07:53:06;;;;;;;4.78;3.45;;;9.90;99.90;;;;;;5009266;28;20037;-75
2022/04/12 07:55:32;;;;;;;2.80;2.45;;;10.00;99.90;;;;;;5009554;28;20038;-76
2022/04/12 07:57:58;;;;;;;1.42;1.05;;;10.10;99.90;;;;;;4975443;28;20512;-75
2022/04/12 08:00:23;;;;;;;7.03;4.47;;;10.20;99.90;;;;;;4977317;28;20045;-75
2022/04/12 08:02:49;;;;;;;5.30;3.63;;;10.30;99.90;;;;;;4987602;28;20049;-75
2022/04/12 08:05:15;;;;;;;4.85;2.90;;;10.40;99.90;;;;;;5011124;28;20497;-75
2022/04/12 08:07:47;;;;;;;6.68;3.58;;;10.40;99.90;;;;;;4991253;28;20045;-75
2022/04/12 08:10:15;;;;;;;4.45;3.35;;;10.50;99.90;;;;;;5026677;28;20052;-75
2022/04/12 08:12:40;;;;;;;5.57;3.70;;;10.50;99.90;;;;;;5010158;28;20049;-75
2022/04/12 08:15:06;;;;;;;4.93;3.22;;;10.60;99.90;;;;;;5010705;28;20045;-75
2022/04/12 08:17:32;;;;;;;5.55;3.10;;;10.70;99.90;;;;;;4985723;28;20034;-75
2022/04/12 08:19:57;;;;;;;3.80;1.90;;;10.80;99.90;;;;;;5003757;28;20034;-75
2022/04/12 08:22:23;;;;;;;4.30;3.15;;;10.90;99.90;;;;;;4998176;28;20071;-76
2022/04/12 08:24:49;;;;;;;4.82;3.13;;;11.00;99.90;;;;;;5005188;28;20034;-75
2022/04/12 08:27:14;;;;;;;9.27;3.80;;;11.10;99.90;;;;;;5013994;28;20128;-76
2022/04/12 08:29:40;;;;;;;3.00;1.80;;;11.30;99.90;;;;;;5007032;28;20485;-75
2022/04/12 08:32:06;;;;;;;0.75;0.75;;;11.40;99.90;;;;;;4991247;28;20080;-75
2022/04/12 08:34:32;;;;;;;2.67;1.08;;;11.60;99.90;;;;;;4987222;28;20116;-75
2022/04/12 08:36:57;;;;;;;8.55;3.10;;;11.80;99.90;;;;;;4995193;28;20179;-76
2022/04/12 08:39:23;;;;;;;32.28;6.43;;;12.00;99.90;;;;;;5022372;28;20037;-74
2022/04/12 08:41:51;;;;;;;3.10;2.10;;;12.20;99.90;;;;;;5023144;28;20052;-75
2022/04/12 08:44:18;;;;;;;5.68;3.63;;;12.40;99.90;;;;;;5014241;28;20445;-75
2022/04/12 08:46:47;;;;;;;16.80;3.92;;;12.60;99.90;;;;;;4993735;28;20041;-75
2022/04/12 08:49:14;;;;;;;3.97;2.90;;;12.80;99.60;;;;;;5024106;28;20064;-75
2022/04/12 08:51:39;;;;;;;7.20;3.92;;;13.00;99.20;;;;;;5031196;28;20041;-75
2022/04/12 08:54:06;;;;;;;5.43;3.40;;;13.40;99.00;;;;;;5009881;28;20052;-74
2022/04/12 08:56:32;;;;;;;1.55;1.45;;;13.70;96.70;;;;;;5013968;28;20107;-74
2022/04/12 08:58:58;;;;;;;3.38;1.80;;;14.10;96.90;;;;;;5012965;28;20045;-75
2022/04/12 09:01:24;;;;;;;3.00;2.70;;;14.50;95.40;;;;;;5013725;28;20045;-75
2022/04/12 09:03:50;;;;;;;1.25;1.15;;;14.80;95.20;;;;;;5014621;28;20094;-75
2022/04/12 09:06:16;;;;;;;2.28;1.95;;;15.20;94.70;;;;;;5030051;28;20076;-76
2022/04/12 09:08:42;;;;;;;1.33;1.23;;;15.60;94.10;;;;;;4997059;28;20041;-75
2022/04/12 09:11:08;;;;;;;13.15;3.97;;;15.80;92.40;;;;;;5013839;28;20041;-75
2022/04/12 09:13:37;;;;;;;4.68;3.80;;;15.80;88.50;;;;;;4997755;28;20056;-75
2022/04/12 09:16:08;;;;;;;21.38;2.78;;;15.70;87.90;;;;;;5013287;28;20054;-75
2022/04/12 09:18:39;;;;;;;7.88;3.83;;;15.70;88.50;;;;;;5003088;28;20068;-75
2022/04/12 09:21:19;;;;;;;1.55;1.38;;;15.90;86.20;;;;;;5013518;28;20045;-76
2022/04/12 09:23:50;;;;;;;5.30;3.78;;;16.00;85.40;;;;;;5012469;28;20075;-75
2022/04/12 09:26:24;;;;;;;2.47;2.25;;;16.50;85.90;;;;;;5003263;28;20057;-76
2022/04/12 09:28:52;;;;;;;4.40;3.50;;;16.80;85.20;;;;;;4992874;28;20049;-76
2022/04/12 09:31:18;;;;;;;4.93;3.10;;;17.10;81.50;;;;;;5002129;28;20041;-76
2022/04/12 09:33:45;;;;;;;3.63;1.88;;;17.10;78.70;;;;;;4990098;28;20045;-76
2022/04/12 09:36:11;;;;;;;1.38;1.23;;;17.30;81.30;;;;;;5013079;28;20102;-76
2022/04/12 09:38:39;;;;;;;3.92;2.58;;;17.50;82.50;;;;;;5009958;28;20485;-76
2022/04/12 09:41:11;;;;;;;2.03;1.40;;;17.40;72.90;;;;;;4990390;28;20045;-76
2022/04/12 09:43:49;;;;;;;5.25;3.13;;;17.30;73.90;;;;;;4994701;28;20048;-76
2022/04/12 09:46:16;;;;;;;3.67;2.03;;;17.30;75.70;;;;;;5013005;28;20410;-76
2022/04/12 09:48:48;;;;;;;8.88;3.80;;;17.30;77.20;;;;;;5018049;28;20052;-76
2022/04/12 09:51:15;;;;;;;3.28;2.83;;;17.50;75.80;;;;;;5021933;28;20041;-76
2022/04/12 09:53:42;;;;;;;1.45;1.08;;;17.50;74.30;;;;;;4993313;28;20052;-76
2022/04/12 09:56:14;;;;;;;8.25;4.10;;;17.50;75.40;;;;;;5009797;28;20072;-76
2022/04/12 09:58:41;;;;;;;2.15;1.75;;;17.60;76.10;;;;;;5004545;28;20048;-76
2022/04/12 10:01:10;;;;;;;4.28;2.55;;;17.40;73.70;;;;;;5010966;28;20052;-76
2022/04/12 10:03:37;;;;;;;6.43;4.25;;;17.30;75.50;;;;;;5012229;28;20045;-75
2022/04/12 10:06:04;;;;;;;1.02;1.02;;;17.30;74.20;;;;;;4996104;28;20029;-75
2022/04/12 10:08:33;;;;;;;3.10;2.45;;;17.20;75.40;;;;;;4994767;28;20548;-76
2022/04/12 10:10:59;;;;;;;5.20;2.42;;;17.30;74.60;;;;;;5011965;28;20075;-76
2022/04/12 10:13:26;;;;;;;3.10;2.75;;;17.40;75.30;;;;;;4992760;28;20501;-76
2022/04/12 10:15:52;;;;;;;1.02;1.00;;;17.40;74.10;;;;;;4983910;28;20033;-76
2022/04/12 10:18:20;;;;;;;2.95;1.65;;;17.50;75.90;;;;;;5005097;28;20584;-75
2022/04/12 10:20:46;;;;;;;1.58;1.48;;;17.70;74.60;;;;;;4981435;28;20121;-76
2022/04/12 10:23:16;;;;;;;6.03;3.95;;;18.10;77.80;;;;;;4995460;28;20116;-75
2022/04/12 10:25:42;;;;;;;8.60;4.60;;;18.20;74.00;;;;;;4976786;28;20285;-76
2022/04/12 10:28:09;;;;;;;5.57;3.25;;;18.10;69.60;;;;;;5020041;28;20139;-75
2022/04/12 10:30:34;;;;;;;3.08;1.58;;;18.00;70.40;;;;;;5012410;28;20156;-75
2022/04/12 10:33:24;;;;;;;4.07;2.95;;;17.90;71.40;;;;;;5011733;28;20120;-75
2022/04/12 10:35:54;;;;;;;1.35;1.25;;;17.90;70.60;;;;;;5011548;28;20049;-75
2022/04/12 10:38:21;;;;;;;3.38;2.58;;;17.80;69.60;;;;;;5012054;28;20051;-76
2022/04/12 10:40:52;;;;;;;3.00;2.58;;;17.80;72.00;;;;;;5008294;28;20049;-75
2022/04/12 10:43:33;;;;;;;5.43;2.83;;;17.90;70.50;;;;;;4980510;28;20037;-75
2022/04/12 10:46:01;;;;;;;6.13;2.67;;;17.90;68.50;;;;;;5006355;28;20559;-75
2022/04/12 10:48:30;;;;;;;6.65;3.22;;;17.80;69.30;;;;;;5006136;28;20455;-75
2022/04/12 10:50:58;;;;;;;4.50;2.53;;;17.90;68.90;;;;;;5004544;28;20034;-75
2022/04/12 10:53:36;;;;;;;1.98;1.60;;;17.90;69.00;;;;;;4982096;28;20042;-75
2022/04/12 10:56:04;;;;;;;3.80;2.40;;;18.00;70.20;;;;;;5013294;28;20064;-75
2022/04/12 10:58:32;;;;;;;2.40;1.98;;;18.20;70.90;;;;;;5006906;28;20083;-75
2022/04/12 11:00:57;;;;;;;5.00;3.03;;;18.40;72.30;;;;;;4992050;28;20049;-75
2022/04/12 11:03:41;;;;;;;3.95;2.40;;;18.50;69.80;;;;;;5008508;28;20044;-75
2022/04/12 11:06:10;;;;;;;6.75;4.35;;;18.60;68.80;;;;;;4991879;28;20044;-75
2022/04/12 11:08:43;;;;;;;2.58;1.40;;;18.60;65.60;;;;;;5008217;28;20041;-75
2022/04/12 11:11:10;;;;;;;3.00;2.25;;;18.40;66.40;;;;;;5007552;28;20045;-75
2022/04/12 11:13:36;;;;;;;2.38;0.77;;;18.40;69.10;;;;;;4997288;28;20144;-75
2022/04/12 11:16:10;;;;;;;5.35;3.13;;;18.60;71.30;;;;;;4991093;28;20049;-75
2022/04/12 11:18:48;;;;;;;1.67;1.58;;;18.80;68.20;;;;;;4996337;28;20046;-75
2022/04/12 11:21:14;;;;;;;4.85;3.08;;;18.90;69.80;;;;;;5000775;28;20288;-75
2022/04/12 11:23:51;;;;;;;2.45;1.55;;;19.10;68.50;;;;;;5008380;28;20045;-75
2022/04/12 11:26:46;;;;;;;4.53;2.65;;;19.10;68.60;;;;;;5004032;28;20096;-75
2022/04/12 11:29:13;;;;;;;1.95;1.45;;;19.10;69.10;;;;;;4987637;28;20382;-74
2022/04/12 11:31:43;;;;;;;4.85;3.30;;;19.10;66.80;;;;;;5009041;28;20095;-74
2022/04/12 11:34:10;;;;;;;1.63;1.52;;;19.10;67.00;;;;;;5005882;28;20052;-74
2022/04/12 11:36:38;;;;;;;4.50;3.13;;;19.10;67.70;;;;;;5001960;28;20053;-75
2022/04/12 11:39:03;;;;;;;1.42;1.25;;;19.00;65.70;;;;;;4999332;28;20037;-74
2022/04/12 11:41:29;;;;;;;4.13;3.35;;;19.00;69.20;;;;;;4999866;28;20048;-74
2022/04/12 11:44:03;;;;;;;7.63;4.43;;;19.10;68.10;;;;;;4984739;28;21762;-74
2022/04/12 11:46:33;;;;;;;2.28;1.83;;;19.00;66.30;;;;;;5010340;28;20042;-74
2022/04/12 11:49:06;;;;;;;1.13;1.02;;;18.80;65.80;;;;;;5024034;28;20509;-74
2022/04/12 11:51:43;;;;;;;4.00;2.70;;;18.80;69.30;;;;;;4990802;28;20030;-74
2022/04/12 11:54:42;;;;;;;1.60;1.35;;;18.90;70.20;;;;;;4994533;28;20524;-74
2022/04/12 11:57:20;;;;;;;9.15;4.20;;;18.90;68.30;;;;;;4998548;28;20053;-74
2022/04/12 11:59:52;;;;;;;0.43;0.43;;;18.80;67.20;;;;;;5010166;28;20116;-74
2022/04/12 12:02:20;;;;;;;5.35;3.85;;;18.70;68.20;;;;;;5029227;28;20661;-74
2022/04/12 12:04:45;;;;;;;3.03;1.95;;;18.70;69.30;;;;;;5010765;28;20038;-74
2022/04/12 12:07:11;;;;;;;4.13;2.40;;;18.80;68.90;;;;;;4994890;28;20623;-74
2022/04/12 12:09:38;;;;;;;4.75;2.97;;;18.80;69.50;;;;;;4992564;28;20045;-74
2022/04/12 12:12:07;;;;;;;3.95;2.83;;;18.90;67.60;;;;;;5010421;28;20127;-74
2022/04/12 12:14:33;;;;;;;1.75;1.55;;;18.90;69.30;;;;;;4994231;28;20038;-74
2022/04/12 12:17:04;;;;;;;2.92;2.60;;;19.00;69.00;;;;;;5007119;28;20052;-74
2022/04/12 12:19:33;;;;;;;5.55;3.42;;;19.00;66.80;;;;;;5023705;28;20148;-74
2022/04/12 12:22:01;;;;;;;5.40;3.42;;;19.00;67.90;;;;;;4986257;28;20080;-74
2022/04/12 12:24:26;;;;;;;1.02;0.98;;;19.00;67.00;;;;;;4977710;28;20038;-74
2022/04/12 12:26:56;;;;;;;3.17;1.85;;;19.00;69.50;;;;;;4990263;28;20057;-74
2022/04/12 12:29:24;;;;;;;3.45;1.92;;;19.10;68.90;;;;;;5008780;28;20088;-74
2022/04/12 12:31:55;;;;;;;2.28;2.08;;;19.20;68.40;;;;;;4990851;28;20054;-74
2022/04/12 12:34:32;;;;;;;2.65;1.80;;;19.20;69.00;;;;;;4995759;28;20125;-73
2022/04/12 12:36:58;;;;;;;2.05;1.38;;;19.30;64.20;;;;;;5027067;28;20572;-73
2022/04/12 12:39:28;;;;;;;3.42;2.92;;;19.30;66.90;;;;;;5004844;28;20046;-74
2022/04/12 12:41:57;;;;;;;5.32;3.00;;;19.20;64.30;;;;;;5007115;28;20050;-74
2022/04/12 12:44:24;;;;;;;24.42;2.65;;;19.20;65.20;;;;;;5007145;28;20033;-74
2022/04/12 12:46:56;;;;;;;5.35;3.58;;;19.10;64.90;;;;;;4982180;28;20048;-73
2022/04/12 12:49:22;;;;;;;5.63;2.80;;;19.10;65.20;;;;;;5010648;28;20124;-74
2022/04/12 12:51:48;;;;;;;3.85;1.98;;;19.20;67.60;;;;;;5009923;28;20128;-74
2022/04/12 12:54:17;;;;;;;3.25;2.80;;;19.40;67.70;;;;;;5007449;28;20065;-74
2022/04/12 12:56:46;;;;;;;2.85;2.28;;;19.60;67.40;;;;;;4985967;28;20452;-74